TimePST,TemperatureF,Dew PointF,Humidity,Sea Level PressureIn,VisibilityMPH,Wind Direction,Wind SpeedMPH,Gust SpeedMPH,PrecipitationIn,Events,Conditions,WindDirDegrees,DateUTC
12:51 AM,59.0,32.0,36,29.91,10.0,Calm,Calm,-,N/A,,Clear,0,2014-02-23 08:51:00
1:51 AM,55.9,35.1,45,29.91,10.0,South,3.5,-,N/A,,Clear,170,2014-02-23 09:51:00
2:51 AM,57.0,27.0,32,29.90,10.0,SE,4.6,-,N/A,,Clear,140,2014-02-23 10:51:00
3:51 AM,59.0,21.0,23,29.89,10.0,SSE,4.6,-,N/A,,Clear,160,2014-02-23 11:51:00
4:51 AM,59.0,24.1,26,29.91,10.0,WSW,3.5,-,N/A,,Clear,240,2014-02-23 12:51:00
5:51 AM,59.0,25.0,27,29.91,10.0,South,9.2,-,N/A,,Clear,180,2014-02-23 13:51:00
6:51 AM,55.9,26.1,32,29.94,10.0,Calm,Calm,-,N/A,,Clear,0,2014-02-23 14:51:00
7:51 AM,60.1,28.9,31,29.95,10.0,South,6.9,-,N/A,,Clear,180,2014-02-23 15:51:00
8:51 AM,61.0,42.1,50,29.96,10.0,SSE,4.6,-,N/A,,Clear,150,2014-02-23 16:51:00
9:51 AM,61.0,50.0,67,29.97,10.0,SW,3.5,-,N/A,,Clear,220,2014-02-23 17:51:00
10:51 AM,60.1,51.1,72,29.99,10.0,SW,4.6,-,N/A,,Clear,230,2014-02-23 18:51:00
11:51 AM,62.1,51.1,67,29.97,10.0,West,5.8,-,N/A,,Clear,280,2014-02-23 19:51:00
12:51 PM,62.1,51.1,67,29.94,10.0,West,3.5,-,N/A,,Clear,280,2014-02-23 20:51:00
1:51 PM,64.9,52.0,63,29.92,10.0,Calm,Calm,-,N/A,,Clear,0,2014-02-23 21:51:00
2:51 PM,64.9,52.0,63,29.91,10.0,NW,3.5,-,N/A,,Clear,310,2014-02-23 22:51:00
3:51 PM,64.0,51.1,63,29.91,10.0,West,5.8,-,N/A,,Clear,280,2014-02-23 23:51:00
4:51 PM,63.0,51.1,65,29.91,10.0,Calm,Calm,-,N/A,,Clear,0,2014-02-24 00:51:00
5:51 PM,59.0,48.9,69,29.93,10.0,Calm,Calm,-,N/A,,Clear,0,2014-02-24 01:51:00
6:51 PM,57.0,48.9,74,29.95,10.0,Calm,Calm,-,N/A,,Clear,0,2014-02-24 02:51:00
7:51 PM,55.9,42.1,60,29.96,10.0,SSE,4.6,-,N/A,,Clear,160,2014-02-24 03:51:00
8:51 PM,53.1,44.1,71,29.98,10.0,East,3.5,-,N/A,,Clear,90,2014-02-24 04:51:00
9:08 PM,51.1,46.0,83,30.00,1.0,SE,5.8,-,N/A,,Haze,130,2014-02-24 05:08:00
9:17 PM,51.1,46.9,86,30.00,1.2,SE,4.6,-,N/A,,Scattered Clouds,130,2014-02-24 05:17:00
9:24 PM,51.1,46.9,86,30.00,3.0,ESE,3.5,-,N/A,,Scattered Clouds,120,2014-02-24 05:24:00
9:51 PM,51.1,48.0,89,29.99,2.0,ESE,5.8,-,N/A,,Scattered Clouds,120,2014-02-24 05:51:00
9:59 PM,51.1,48.0,89,30.01,1.0,ESE,6.9,-,N/A,,Mist,110,2014-02-24 05:59:00
10:07 PM,51.1,48.9,92,30.01,0.2,ESE,5.8,-,N/A,Fog,Fog,110,2014-02-24 06:07:00
10:51 PM,50.0,48.9,96,29.99,0.2,ENE,5.8,-,N/A,Fog,Fog,60,2014-02-24 06:51:00
11:51 PM,50.0,48.9,96,29.99,0.2,ENE,6.9,-,N/A,Fog,Fog,70,2014-02-24 07:51:00